createdAt,value
2017-11-06T00:02:00.671Z,80.53
2017-11-06T00:04:26.969Z,80.69
2017-11-06T00:06:54.079Z,81.12
2017-11-06T00:09:20.421Z,80.83
2017-11-06T00:11:46.697Z,81.31
2017-11-06T00:14:13.010Z,81.35
2017-11-06T00:16:40.090Z,81.44
2017-11-06T00:19:06.443Z,80.83
2017-11-06T00:21:33.521Z,81.39
2017-11-06T00:23:59.858Z,80.22
2017-11-06T00:26:26.104Z,79.40
2017-11-06T00:28:53.235Z,79.57
2017-11-06T00:31:19.538Z,79.14
2017-11-06T00:33:45.832Z,79.25
2017-11-06T00:36:12.150Z,79.58
2017-11-06T00:38:39.199Z,79.63
2017-11-06T00:41:06.321Z,80.26
2017-11-06T00:43:32.637Z,79.48
2017-11-06T00:45:58.955Z,79.48
2017-11-06T00:48:25.276Z,79.48
2017-11-06T00:50:51.576Z,80.00
2017-11-06T00:53:18.624Z,80.24
2017-11-06T00:55:44.966Z,79.50
2017-11-06T00:58:11.321Z,79.37
2017-11-06T01:00:37.698Z,78.53
2017-11-06T01:03:03.997Z,78.78
2017-11-06T01:05:30.390Z,79.24
2017-11-06T01:07:56.714Z,79.70
2017-11-06T01:10:23.140Z,80.04
2017-11-06T01:12:49.526Z,80.34
2017-11-06T01:15:15.809Z,79.67
2017-11-06T01:17:42.939Z,80.08
2017-11-06T01:20:09.202Z,79.19
2017-11-06T01:22:35.558Z,79.96
2017-11-06T01:25:01.869Z,80.03
2017-11-06T01:27:28.417Z,80.04
2017-11-06T01:29:54.789Z,79.82
2017-11-06T01:32:21.097Z,79.30
2017-11-06T01:34:47.446Z,79.71
2017-11-06T01:37:13.847Z,79.38
2017-11-06T01:39:40.153Z,79.20
2017-11-06T01:42:07.230Z,79.56
2017-11-06T01:44:33.567Z,79.32
2017-11-06T01:46:59.915Z,78.69
2017-11-06T01:49:26.213Z,78.51
2017-11-06T01:51:52.517Z,78.91
2017-11-06T01:54:18.820Z,79.02
2017-11-06T01:56:45.224Z,78.46
2017-11-06T01:59:11.617Z,78.97
2017-11-06T02:01:37.894Z,78.81
2017-11-06T02:04:04.192Z,77.63
2017-11-06T02:06:30.473Z,77.74
2017-11-06T02:08:56.746Z,77.57
2017-11-06T02:11:23.076Z,77.80
2017-11-06T02:13:49.450Z,77.49
2017-11-06T02:16:15.781Z,77.00
2017-11-06T02:18:42.083Z,77.51
2017-11-06T02:21:08.390Z,77.73
2017-11-06T02:23:35.434Z,77.40
2017-11-06T02:26:02.531Z,78.11
2017-11-06T02:28:28.894Z,77.26
2017-11-06T02:30:55.297Z,76.50
2017-11-06T02:33:21.586Z,77.27
2017-11-06T02:35:47.893Z,77.96
2017-11-06T02:38:14.219Z,77.71
2017-11-06T02:40:40.555Z,77.56
2017-11-06T02:43:06.901Z,77.52
2017-11-06T02:45:34.033Z,77.91
2017-11-06T02:48:00.365Z,78.09
2017-11-06T02:50:27.468Z,77.15
2017-11-06T02:52:53.802Z,77.15
2017-11-06T02:55:20.156Z,77.18
2017-11-06T02:57:46.462Z,76.78
2017-11-06T03:00:12.785Z,76.97
2017-11-06T03:02:39.066Z,76.75
2017-11-06T03:05:05.382Z,77.71
2017-11-06T03:07:31.661Z,77.39
2017-11-06T03:09:57.960Z,77.11
2017-11-06T03:12:24.242Z,76.01
2017-11-06T03:14:50.529Z,76.47
2017-11-06T03:17:16.925Z,75.95
2017-11-06T03:19:43.272Z,76.48
2017-11-06T03:22:09.582Z,75.64
2017-11-06T03:24:35.888Z,76.51
2017-11-06T03:27:02.171Z,76.17
2017-11-06T03:29:28.510Z,76.36
2017-11-06T03:31:54.774Z,76.29
2017-11-06T03:34:21.057Z,75.95
2017-11-06T03:36:47.342Z,76.07
2017-11-06T03:39:13.669Z,75.91
2017-11-06T03:41:39.961Z,75.64
2017-11-06T03:44:06.252Z,75.69
2017-11-06T03:46:32.610Z,74.69
2017-11-06T03:48:58.886Z,74.97
2017-11-06T03:51:25.203Z,75.02
2017-11-06T03:53:52.272Z,75.18
2017-11-06T03:56:18.588Z,75.71
2017-11-06T03:58:45.639Z,75.29
2017-11-06T04:01:11.977Z,75.68
2017-11-06T04:03:38.289Z,76.27
2017-11-06T04:06:05.347Z,76.37
2017-11-06T04:08:31.672Z,76.99
2017-11-06T04:10:57.998Z,77.09
2017-11-06T04:13:25.085Z,76.38
2017-11-06T04:15:51.405Z,75.96
2017-11-06T04:18:17.707Z,76.18
2017-11-06T04:20:44.757Z,76.00
2017-11-06T04:23:11.026Z,76.19
2017-11-06T04:25:37.322Z,75.54
2017-11-06T04:28:03.631Z,75.61
2017-11-06T04:30:30.016Z,75.50
2017-11-06T04:32:56.354Z,76.46
2017-11-06T04:35:22.674Z,75.79
2017-11-06T04:37:49.100Z,76.38
2017-11-06T04:40:15.460Z,75.91
2017-11-06T04:42:41.756Z,76.58
2017-11-06T04:45:08.050Z,76.26
2017-11-06T04:47:34.399Z,74.90
2017-11-06T04:50:01.537Z,74.87
2017-11-06T04:52:27.852Z,75.65
2017-11-06T04:54:54.138Z,75.71
2017-11-06T04:57:20.420Z,75.88
2017-11-06T04:59:46.748Z,76.18
2017-11-06T05:02:13.062Z,76.30
2017-11-06T05:04:39.413Z,75.92
2017-11-06T05:07:05.698Z,76.09
2017-11-06T05:09:31.998Z,75.43
2017-11-06T05:11:59.071Z,74.20
2017-11-06T05:14:25.352Z,74.38
2017-11-06T05:16:51.690Z,75.83
2017-11-06T05:19:18.016Z,76.08
2017-11-06T05:21:44.336Z,75.06
2017-11-06T05:24:10.715Z,75.12
2017-11-06T05:26:37.073Z,74.04
2017-11-06T05:29:03.366Z,74.49
2017-11-06T05:31:30.390Z,75.75
2017-11-06T05:33:56.783Z,75.93
2017-11-06T05:36:23.065Z,76.25
2017-11-06T05:38:50.242Z,76.74
2017-11-06T05:41:16.550Z,76.77
2017-11-06T05:43:43.637Z,75.25
2017-11-06T05:46:09.949Z,75.12
2017-11-06T05:48:36.290Z,75.13
2017-11-06T05:51:02.621Z,76.20
2017-11-06T05:53:28.989Z,76.95
2017-11-06T05:55:56.076Z,77.01
2017-11-06T05:58:23.102Z,76.19
2017-11-06T06:00:49.500Z,76.24
2017-11-06T06:03:15.950Z,77.57
2017-11-06T06:05:42.299Z,76.96
2017-11-06T06:08:08.604Z,76.06
2017-11-06T06:10:34.896Z,75.28
2017-11-06T06:13:01.184Z,74.70
2017-11-06T06:15:27.456Z,76.18
2017-11-06T06:17:53.798Z,76.16
2017-11-06T06:20:20.125Z,76.30
2017-11-06T06:22:46.463Z,76.07
2017-11-06T06:25:12.750Z,76.29
2017-11-06T06:27:39.074Z,75.41
2017-11-06T06:30:05.430Z,75.23
2017-11-06T06:32:31.750Z,75.61
2017-11-06T06:34:58.813Z,75.88
2017-11-06T06:37:25.117Z,75.86
2017-11-06T06:39:51.547Z,75.63
2017-11-06T06:42:17.853Z,75.58
2017-11-06T06:44:44.221Z,75.05
2017-11-06T06:47:10.596Z,74.77
2017-11-06T06:49:36.897Z,74.09
2017-11-06T06:52:03.928Z,75.43
2017-11-06T06:54:30.293Z,75.82
2017-11-06T06:56:56.621Z,76.15
2017-11-06T06:59:22.925Z,76.09
2017-11-06T07:01:49.291Z,75.42
2017-11-06T07:04:15.623Z,74.65
2017-11-06T07:06:41.932Z,75.01
2017-11-06T07:09:15.896Z,75.03
2017-11-06T07:11:42.260Z,75.42
2017-11-06T07:14:09.325Z,74.64
2017-11-06T07:16:35.737Z,75.16
2017-11-06T07:19:02.109Z,75.96
2017-11-06T07:21:28.447Z,74.87
2017-11-06T07:23:54.793Z,75.57
2017-11-06T07:26:21.064Z,75.55
2017-11-06T07:28:47.345Z,75.40
2017-11-06T07:31:13.679Z,74.46
2017-11-06T07:33:39.974Z,74.26
2017-11-06T07:36:06.984Z,73.12
2017-11-06T07:38:33.387Z,73.23
2017-11-06T07:40:59.718Z,74.20
2017-11-06T07:43:26.105Z,75.22
2017-11-06T07:45:53.170Z,74.34
2017-11-06T07:48:20.297Z,74.77
2017-11-06T07:50:48.071Z,73.15
2017-11-06T07:53:14.414Z,73.31
2017-11-06T07:55:41.438Z,72.82
2017-11-06T07:58:08.477Z,72.62
2017-11-06T08:00:34.811Z,72.49
2017-11-06T08:03:01.073Z,72.39
2017-11-06T08:05:28.391Z,70.92
2017-11-06T08:07:54.740Z,68.97
2017-11-06T08:10:21.810Z,68.11
2017-11-06T08:12:48.890Z,69.25
2017-11-06T08:15:15.296Z,70.25
2017-11-06T08:17:41.706Z,69.94
2017-11-06T08:20:08.847Z,68.59
2017-11-06T08:22:35.284Z,68.90
2017-11-06T08:25:01.738Z,68.26
2017-11-06T08:27:28.842Z,68.30
2017-11-06T08:29:55.172Z,67.96
2017-11-06T08:32:21.508Z,68.64
2017-11-06T08:34:47.796Z,66.93
2017-11-06T08:37:14.169Z,68.96
2017-11-06T08:39:40.534Z,69.11
2017-11-06T08:42:07.550Z,69.89
2017-11-06T08:44:33.889Z,68.02
2017-11-06T08:47:00.178Z,67.02
2017-11-06T08:49:26.455Z,65.93
2017-11-06T08:51:52.839Z,65.08
2017-11-06T08:54:19.297Z,64.09
2017-11-06T08:56:45.639Z,63.73
2017-11-06T08:59:12.008Z,64.50
2017-11-06T09:01:39.065Z,64.66
2017-11-06T09:04:06.250Z,63.77
2017-11-06T09:06:32.563Z,63.66
2017-11-06T09:08:58.839Z,62.36
2017-11-06T09:11:25.159Z,63.28
2017-11-06T09:13:51.580Z,63.59
2017-11-06T09:16:17.884Z,65.82
2017-11-06T09:18:44.258Z,64.57
2017-11-06T09:21:10.544Z,63.26
2017-11-06T09:23:36.845Z,64.59
2017-11-06T09:26:03.153Z,63.66
2017-11-06T09:28:29.447Z,63.99
2017-11-06T09:30:55.991Z,63.60
2017-11-06T09:33:22.304Z,65.45
2017-11-06T09:35:48.636Z,65.98
2017-11-06T09:38:15.140Z,65.43
2017-11-06T09:40:42.228Z,61.76
2017-11-06T09:43:08.587Z,61.60
2017-11-06T09:45:35.748Z,61.13
2017-11-06T09:48:02.078Z,62.24
2017-11-06T09:50:28.365Z,63.92
2017-11-06T09:52:54.686Z,64.36
2017-11-06T09:55:21.047Z,65.49
2017-11-06T09:57:47.390Z,66.00
2017-11-06T10:00:13.784Z,66.61
2017-11-06T10:02:40.109Z,66.75
2017-11-06T10:05:06.388Z,66.44
2017-11-06T10:07:32.738Z,66.10
2017-11-06T10:09:59.181Z,65.36
2017-11-06T10:12:26.253Z,66.53
2017-11-06T10:14:53.799Z,66.81
2017-11-06T10:17:20.879Z,65.80
2017-11-06T10:19:47.270Z,64.88
2017-11-06T10:22:13.545Z,65.73
2017-11-06T10:24:39.849Z,65.74
2017-11-06T10:27:06.978Z,65.75
2017-11-06T10:29:33.312Z,65.97
2017-11-06T10:32:00.420Z,65.70
2017-11-06T10:34:26.818Z,65.75
2017-11-06T10:36:53.965Z,66.23
2017-11-06T10:39:20.308Z,66.15
2017-11-06T10:41:46.693Z,65.83
2017-11-06T10:44:13.031Z,65.77
2017-11-06T10:46:39.369Z,65.25
2017-11-06T10:49:05.681Z,66.10
2017-11-06T10:51:32.006Z,65.75
2017-11-06T10:53:58.555Z,66.00
2017-11-06T10:56:24.880Z,65.48
2017-11-06T10:58:51.342Z,65.64
2017-11-06T11:01:18.434Z,65.56
2017-11-06T11:03:44.765Z,65.53
2017-11-06T11:06:11.108Z,64.16
2017-11-06T11:08:37.396Z,62.79
2017-11-06T11:11:04.477Z,61.28
2017-11-06T11:13:30.860Z,61.19
2017-11-06T11:15:57.202Z,62.26
2017-11-06T11:18:24.486Z,63.48
2017-11-06T11:20:50.974Z,62.37
2017-11-06T11:23:17.772Z,62.09
2017-11-06T11:25:44.155Z,62.81
2017-11-06T11:28:10.463Z,62.13
2017-11-06T11:30:36.890Z,62.93
2017-11-06T11:33:03.227Z,63.78
2017-11-06T11:35:29.666Z,62.99
2017-11-06T11:37:55.957Z,61.72
2017-11-06T11:40:22.329Z,61.56
2017-11-06T11:42:48.714Z,60.32
2017-11-06T11:45:15.090Z,59.66
2017-11-06T11:47:41.489Z,59.33
2017-11-06T11:50:07.920Z,58.09
2017-11-06T11:52:34.331Z,58.58
2017-11-06T11:55:00.805Z,58.54
2017-11-06T11:57:27.293Z,58.10
2017-11-06T11:59:54.460Z,59.47
2017-11-06T12:02:21.003Z,60.06
2017-11-06T12:04:47.410Z,59.86
2017-11-06T12:07:14.580Z,59.18
2017-11-06T12:09:41.010Z,58.73
2017-11-06T12:12:07.435Z,58.41
2017-11-06T12:14:34.588Z,58.97
2017-11-06T12:17:01.753Z,59.86
2017-11-06T12:19:28.221Z,60.31
2017-11-06T12:21:54.584Z,60.96
2017-11-06T12:24:20.879Z,60.94
2017-11-06T12:26:47.193Z,60.76
2017-11-06T12:29:13.585Z,59.96
2017-11-06T12:31:39.988Z,61.71
2017-11-06T12:34:06.287Z,62.06
2017-11-06T12:36:32.776Z,62.81
2017-11-06T12:38:59.121Z,63.85
2017-11-06T12:41:26.279Z,63.19
2017-11-06T12:43:53.421Z,61.81
2017-11-06T12:46:20.567Z,60.84
2017-11-06T12:48:47.657Z,60.84
2017-11-06T12:51:14.132Z,60.89
2017-11-06T12:53:40.582Z,60.82
2017-11-06T12:56:07.758Z,61.45
2017-11-06T12:58:34.129Z,61.58
2017-11-06T13:01:00.434Z,61.27
2017-11-06T13:03:26.766Z,61.04
2017-11-06T13:05:53.128Z,61.77
2017-11-06T13:08:19.605Z,61.50
2017-11-06T13:10:46.672Z,59.97
2017-11-06T13:13:13.020Z,58.91
2017-11-06T13:15:39.378Z,57.00
2017-11-06T13:18:05.710Z,56.17
2017-11-06T13:20:32.017Z,55.60
2017-11-06T13:22:58.421Z,55.37
2017-11-06T13:25:24.734Z,56.99
2017-11-06T13:27:51.771Z,56.74
2017-11-06T13:30:18.094Z,59.59
2017-11-06T13:32:44.452Z,60.11
2017-11-06T13:35:10.817Z,59.24
2017-11-06T13:37:37.144Z,60.50
2017-11-06T13:40:03.443Z,59.68
2017-11-06T13:42:29.821Z,59.95
2017-11-06T13:44:56.163Z,59.97
2017-11-06T13:47:22.477Z,59.81
2017-11-06T13:49:48.763Z,59.63
2017-11-06T13:52:15.813Z,60.16
2017-11-06T13:54:42.925Z,59.74
2017-11-06T13:57:09.212Z,60.07
2017-11-06T13:59:35.500Z,60.19
2017-11-06T14:02:01.793Z,60.41
2017-11-06T14:04:28.173Z,60.16
2017-11-06T14:06:54.487Z,59.88
2017-11-06T14:09:20.815Z,60.36
2017-11-06T14:11:47.133Z,60.33
2017-11-06T14:14:13.464Z,60.61
2017-11-06T14:16:39.833Z,60.26
2017-11-06T14:19:06.162Z,60.71
2017-11-06T14:21:32.490Z,60.63
2017-11-06T14:23:58.795Z,60.60
2017-11-06T14:26:25.058Z,60.09
2017-11-06T14:28:52.117Z,60.08
2017-11-06T14:31:19.246Z,60.09
2017-11-06T14:33:46.320Z,60.27
2017-11-06T14:36:12.712Z,61.98
2017-11-06T14:38:40.339Z,62.51
2017-11-06T14:41:07.229Z,62.49
2017-11-06T14:43:33.636Z,63.17
2017-11-06T14:45:59.981Z,63.52
2017-11-06T14:48:26.245Z,63.19
2017-11-06T14:50:54.153Z,63.58
2017-11-06T14:53:20.492Z,63.03
2017-11-06T14:55:46.778Z,62.97
2017-11-06T14:58:13.218Z,62.82
2017-11-06T15:00:40.305Z,62.99
2017-11-06T15:03:06.591Z,63.58
2017-11-06T15:05:33.678Z,63.72
2017-11-06T15:07:59.958Z,64.12
2017-11-06T15:10:26.998Z,64.24
2017-11-06T15:12:54.770Z,64.12
2017-11-06T15:15:21.096Z,64.38
2017-11-06T15:17:47.454Z,64.52
2017-11-06T15:20:13.858Z,64.43
2017-11-06T15:22:40.243Z,64.51
2017-11-06T15:25:06.509Z,64.94
2017-11-06T15:27:32.900Z,65.07
2017-11-06T15:29:59.262Z,65.30
2017-11-06T15:32:25.656Z,65.57
2017-11-06T15:34:52.007Z,65.10
2017-11-06T15:37:18.421Z,65.23
2017-11-06T15:39:44.746Z,65.84
2017-11-06T15:42:11.066Z,66.11
2017-11-06T15:44:37.431Z,66.27
2017-11-06T15:47:03.795Z,66.61
2017-11-06T15:49:30.133Z,66.70
2017-11-06T15:51:57.214Z,67.11
2017-11-06T15:54:24.326Z,67.34
2017-11-06T15:56:51.292Z,67.85
2017-11-06T15:59:17.640Z,68.25
2017-11-06T16:01:44.667Z,68.40
2017-11-06T16:04:10.951Z,69.54
2017-11-06T16:06:37.462Z,69.68
2017-11-06T16:09:03.786Z,70.53
2017-11-06T16:11:30.389Z,70.95
2017-11-06T16:13:56.769Z,71.55
2017-11-06T16:16:23.059Z,71.36
2017-11-06T16:18:49.369Z,72.34
2017-11-06T16:21:15.721Z,72.60
2017-11-06T16:23:42.025Z,72.11
2017-11-06T16:26:08.361Z,71.32
2017-11-06T16:28:34.930Z,71.14
2017-11-06T16:31:01.245Z,71.62
2017-11-06T16:33:27.747Z,71.77
2017-11-06T16:35:54.047Z,72.31
2017-11-06T16:38:20.555Z,72.47
2017-11-06T16:40:46.885Z,72.40
2017-11-06T16:43:13.503Z,72.43
2017-11-06T16:45:39.837Z,72.61
2017-11-06T16:48:06.186Z,72.53
2017-11-06T16:50:32.640Z,72.49
2017-11-06T16:52:59.711Z,72.38
2017-11-06T16:55:26.174Z,71.48
2017-11-06T16:57:52.495Z,71.03
2017-11-06T17:00:18.824Z,71.32
2017-11-06T17:02:45.185Z,71.60
2017-11-06T17:05:11.541Z,72.17
2017-11-06T17:07:38.612Z,73.04
2017-11-06T17:10:05.099Z,73.43
2017-11-06T17:12:31.405Z,73.69
2017-11-06T17:14:57.779Z,73.12
2017-11-06T17:17:24.101Z,72.88
2017-11-06T17:19:50.443Z,73.10
2017-11-06T17:22:16.843Z,73.32
2017-11-06T17:24:43.272Z,73.31
2017-11-06T17:27:09.620Z,73.55
2017-11-06T17:29:36.084Z,73.45
2017-11-06T17:32:03.221Z,73.51
2017-11-06T17:34:29.581Z,73.48
2017-11-06T17:36:55.963Z,73.67
2017-11-06T17:39:22.315Z,73.68
2017-11-06T17:41:48.709Z,73.69
2017-11-06T17:44:16.136Z,73.88
2017-11-06T17:46:42.591Z,74.33
2017-11-06T17:49:08.989Z,74.07
2017-11-06T17:51:36.103Z,74.15
2017-11-06T17:54:02.426Z,73.85
2017-11-06T17:56:29.252Z,73.06
2017-11-06T17:58:55.870Z,73.20
2017-11-06T18:01:22.258Z,73.57
2017-11-06T18:03:48.773Z,73.51
2017-11-06T18:06:15.157Z,73.33
2017-11-06T18:08:42.420Z,73.29
2017-11-06T18:11:09.027Z,73.32
2017-11-06T18:13:36.446Z,73.25
2017-11-06T18:16:03.289Z,73.51
2017-11-06T18:18:29.684Z,73.40
2017-11-06T18:20:56.053Z,73.15
2017-11-06T18:23:22.389Z,73.33
2017-11-06T18:25:48.829Z,72.53
2017-11-06T18:28:15.173Z,72.93
2017-11-06T18:30:41.726Z,72.90
2017-11-06T18:33:08.199Z,73.55
2017-11-06T18:35:34.547Z,73.58
2017-11-06T18:38:00.938Z,73.28
2017-11-06T18:40:28.236Z,73.16
2017-11-06T18:42:54.663Z,72.79
2017-11-06T18:45:21.202Z,73.19
2017-11-06T18:47:47.602Z,74.48
2017-11-06T18:50:14.724Z,73.96
2017-11-06T18:52:41.077Z,73.85
2017-11-06T18:55:08.168Z,73.51
2017-11-06T18:57:34.526Z,73.29
2017-11-06T19:00:00.945Z,73.47
2017-11-06T19:02:27.312Z,74.52
2017-11-06T19:04:55.143Z,74.23
2017-11-06T19:07:21.617Z,74.30
2017-11-06T19:09:48.765Z,74.17
2017-11-06T19:12:15.883Z,74.33
2017-11-06T19:14:42.212Z,74.03
2017-11-06T19:17:08.573Z,73.59
2017-11-06T19:19:35.801Z,73.34
2017-11-06T19:22:02.315Z,73.04
2017-11-06T19:24:28.696Z,73.27
2017-11-06T19:26:55.841Z,72.98
2017-11-06T19:29:22.181Z,73.21
2017-11-06T19:31:49.286Z,73.01
2017-11-06T19:34:15.656Z,72.68
2017-11-06T19:36:42.090Z,73.14
2017-11-06T19:39:08.395Z,73.50
2017-11-06T19:41:34.722Z,73.13
2017-11-06T19:44:02.083Z,73.61
2017-11-06T19:46:29.943Z,74.04
2017-11-06T19:48:57.104Z,74.01
2017-11-06T19:51:24.613Z,74.20
2017-11-06T19:53:51.043Z,74.00
2017-11-06T19:56:17.478Z,73.42
2017-11-06T19:58:43.867Z,72.54
2017-11-06T20:01:10.167Z,71.80
2017-11-06T20:03:36.528Z,71.63
2017-11-06T20:06:03.086Z,71.01
2017-11-06T20:08:29.537Z,70.94
2017-11-06T20:10:55.948Z,70.89
2017-11-06T20:13:22.480Z,71.06
2017-11-06T20:15:48.821Z,71.31
2017-11-06T20:18:15.922Z,71.76
2017-11-06T20:20:42.248Z,71.95
2017-11-06T20:23:08.622Z,71.40
2017-11-06T20:25:34.998Z,71.12
2017-11-06T20:28:01.318Z,71.45
2017-11-06T20:30:27.676Z,71.29
2017-11-06T20:32:54.058Z,71.08
2017-11-06T20:35:20.728Z,70.81
2017-11-06T20:37:47.366Z,70.91
2017-11-06T20:40:14.134Z,70.56
2017-11-06T20:42:40.455Z,70.47
2017-11-06T20:45:06.921Z,70.98
2017-11-06T20:47:33.374Z,70.86
2017-11-06T20:50:00.541Z,70.37
2017-11-06T20:52:26.883Z,70.60
2017-11-06T20:54:53.224Z,70.34
2017-11-06T20:57:19.548Z,71.22
2017-11-06T20:59:45.893Z,70.90
2017-11-06T21:02:12.285Z,71.01
2017-11-06T21:04:39.389Z,71.05
2017-11-06T21:07:06.140Z,71.04
2017-11-06T21:09:33.101Z,70.97
2017-11-06T21:11:59.719Z,71.36
2017-11-06T21:14:27.510Z,71.05
2017-11-06T21:16:53.908Z,71.11
2017-11-06T21:19:20.320Z,71.43
2017-11-06T21:21:46.770Z,70.84
2017-11-06T21:24:13.098Z,70.68
2017-11-06T21:26:39.372Z,70.84
2017-11-06T21:29:05.714Z,71.61
2017-11-06T21:31:32.058Z,70.57
2017-11-06T21:33:59.103Z,70.18
2017-11-06T21:36:25.547Z,70.53
2017-11-06T21:38:52.605Z,70.73
2017-11-06T21:41:19.013Z,70.81
2017-11-06T21:43:46.061Z,70.41
2017-11-06T21:46:13.106Z,70.11
2017-11-06T21:48:40.174Z,70.58
2017-11-06T21:51:07.213Z,70.32
2017-11-06T21:53:34.287Z,70.78
2017-11-06T21:56:00.585Z,71.69
2017-11-06T21:58:26.893Z,71.28
2017-11-06T22:00:53.206Z,71.57
2017-11-06T22:03:19.558Z,72.02
2017-11-06T22:05:45.872Z,71.75
2017-11-06T22:08:12.185Z,71.36
2017-11-06T22:10:38.492Z,71.62
2017-11-06T22:13:05.026Z,71.25
2017-11-06T22:15:32.121Z,71.29
2017-11-06T22:17:58.422Z,70.99
2017-11-06T22:20:24.752Z,71.72
2017-11-06T22:22:52.044Z,71.53
2017-11-06T22:25:18.424Z,71.18
2017-11-06T22:27:45.510Z,71.23
2017-11-06T22:30:11.921Z,72.17
2017-11-06T22:32:38.229Z,72.41
2017-11-06T22:35:05.293Z,72.63
2017-11-06T22:37:31.593Z,72.22
2017-11-06T22:39:57.897Z,71.81
2017-11-06T22:42:24.215Z,72.12
2017-11-06T22:44:50.527Z,72.45
2017-11-06T22:47:16.822Z,72.83
2017-11-06T22:49:43.906Z,72.34
2017-11-06T22:52:10.934Z,72.31
2017-11-06T22:54:38.002Z,71.85
2017-11-06T22:57:04.312Z,71.99
2017-11-06T22:59:31.296Z,72.43
2017-11-06T23:01:57.592Z,72.76
2017-11-06T23:04:23.888Z,73.05
2017-11-06T23:06:50.162Z,73.16
2017-11-06T23:09:16.570Z,73.07
2017-11-06T23:11:43.772Z,72.63
2017-11-06T23:14:10.162Z,72.09
2017-11-06T23:16:37.225Z,72.75
2017-11-06T23:19:03.566Z,72.49
2017-11-06T23:21:29.883Z,72.57
2017-11-06T23:23:56.235Z,72.75
2017-11-06T23:26:22.550Z,72.69
2017-11-06T23:28:48.877Z,73.08
2017-11-06T23:31:15.181Z,72.84
2017-11-06T23:33:41.475Z,72.84
2017-11-06T23:36:07.842Z,72.44
2017-11-06T23:38:34.277Z,71.98
2017-11-06T23:41:00.563Z,72.35
2017-11-06T23:43:26.901Z,72.72
2017-11-06T23:45:53.285Z,72.69
2017-11-06T23:48:20.329Z,72.47
2017-11-06T23:50:47.469Z,72.86
2017-11-06T23:53:13.811Z,72.97
2017-11-06T23:55:40.888Z,72.58
2017-11-06T23:58:07.277Z,72.30
